メインページ
METAR-TAF:

METAR-TAF

空港 :

ニアメ, ニジェール

ディオリ・アマニ国際空港

緯度: 13-29N, 経度: 002-10E, 海抜: 223m

現時点の気象観測

当レポートは1時間6分前の04:00(UTC)に作成
東/北東の風 4kt
気温 22°C
湿度 46%
気圧 1013 hPa
視程: 8000m

METAR: DRRN 210400Z 07004KT 8000 NSC 22/10 Q1013 NOSIG

時間: 06:06 (05:06 UTC)

予報

当レポートは6時間6分前の23:00(UTC)に作成
予報は21日の 00時(UTC)から 22日の 06時(UTC)まで有効
南/南東の風 6kt
視程: 8000m
21日の 06時(UTC)から 21日の 09時(UTC)まで一時的に
視程: 3500m
広範な塵
21日の 17時(UTC)から 21日の 20時(UTC)まで一時的に
視程: 3500m
広範な塵

TAF: DRRN 202300Z 2100/2206 16006KT 8000 NSC TEMPO 2106/2109 3500 DU TEMPO 2117/2120 3500 DU

4,000以上の空港の気象観測と天気予報(METAR報とTAF報)

利用可能な観測所は地図上に黄色い丸と赤い丸で示す。

丸の上にカーソルを重ねると観測所名を参照できる。

次にクリックすると気象観測と天気予報を参照できる。

マップの切り替え:黒色「×」印の緑ボタンをクリックして拡大、「-」印の緑ボタンをクリックして縮小、緑色の三角印をクリックして隣りの地図に切り替え


METAR-TAF: